createdAt,value
2018-06-15T00:00:57.218Z,79.16
2018-06-15T00:03:39.518Z,78.63
2018-06-15T00:06:06.410Z,78.31
2018-06-15T00:08:34.310Z,78.95
2018-06-15T00:11:07.206Z,78.38
2018-06-15T00:13:34.969Z,79.81
2018-06-15T00:16:02.796Z,78.67
2018-06-15T00:18:30.334Z,80.35
2018-06-15T00:21:05.098Z,81.57
2018-06-15T00:23:38.386Z,82.11
2018-06-15T00:26:05.322Z,81.20
2018-06-15T00:28:33.291Z,82.02
2018-06-15T00:31:03.853Z,82.41
2018-06-15T00:33:30.817Z,83.03
2018-06-15T00:35:57.757Z,83.37
2018-06-15T00:38:24.730Z,83.41
2018-06-15T00:40:51.670Z,83.05
2018-06-15T00:43:20.378Z,82.62
2018-06-15T00:45:53.510Z,81.68
2018-06-15T00:48:21.382Z,82.55
2018-06-15T00:50:49.330Z,82.01
2018-06-15T00:53:16.794Z,82.48
2018-06-15T00:55:43.720Z,82.19
2018-06-15T00:58:10.603Z,82.76
2018-06-15T01:00:37.452Z,82.53
2018-06-15T01:03:05.359Z,81.49
2018-06-15T01:05:32.327Z,82.09
2018-06-15T01:08:02.264Z,82.10
2018-06-15T01:10:32.251Z,83.30
2018-06-15T01:13:06.371Z,84.23
2018-06-15T01:15:34.358Z,85.27
2018-06-15T01:18:02.076Z,84.00
2018-06-15T01:20:30.848Z,84.68
2018-06-15T01:22:57.854Z,83.17
2018-06-15T01:25:24.769Z,82.78
2018-06-15T01:27:51.746Z,83.72
2018-06-15T01:30:18.594Z,82.69
2018-06-15T01:32:45.498Z,83.43
2018-06-15T01:35:12.511Z,82.70
2018-06-15T01:37:40.365Z,81.57
2018-06-15T01:40:08.982Z,81.15
2018-06-15T01:42:39.818Z,81.58
2018-06-15T01:45:06.795Z,81.40
2018-06-15T01:47:33.769Z,81.69
2018-06-15T01:50:03.647Z,82.10
2018-06-15T01:52:31.332Z,81.06
2018-06-15T01:54:59.313Z,81.44
2018-06-15T01:57:26.901Z,82.05
2018-06-15T01:59:56.174Z,83.04
2018-06-15T02:02:25.842Z,82.20
2018-06-15T02:04:52.747Z,78.98
2018-06-15T02:07:21.363Z,81.79
2018-06-15T02:09:48.807Z,81.59
2018-06-15T02:12:15.686Z,83.87
2018-06-15T02:14:45.594Z,84.42
2018-06-15T02:17:18.720Z,84.90
2018-06-15T02:19:46.391Z,84.47
2018-06-15T02:22:13.347Z,85.25
2018-06-15T02:24:42.874Z,85.33
2018-06-15T02:27:09.835Z,86.47
2018-06-15T02:29:36.830Z,85.48
2018-06-15T02:32:03.743Z,83.66
2018-06-15T02:34:32.375Z,84.82
2018-06-15T02:37:00.961Z,85.48
2018-06-15T02:39:28.915Z,84.30
2018-06-15T02:41:56.374Z,86.24
2018-06-15T02:44:24.879Z,87.31
2018-06-15T02:46:51.815Z,86.50
2018-06-15T02:49:22.939Z,86.42
2018-06-15T02:51:50.856Z,84.65
2018-06-15T02:54:17.731Z,84.45
2018-06-15T02:56:44.723Z,85.01
2018-06-15T02:59:15.630Z,85.49
2018-06-15T03:01:42.574Z,84.25
2018-06-15T03:04:10.571Z,84.45
2018-06-15T03:06:39.474Z,84.24
2018-06-15T03:09:20.160Z,85.05
2018-06-15T03:11:47.930Z,86.59
2018-06-15T03:14:14.875Z,85.37
2018-06-15T03:16:42.860Z,85.88
2018-06-15T03:19:09.822Z,85.49
2018-06-15T03:21:36.751Z,85.83
2018-06-15T03:24:03.674Z,85.03
2018-06-15T03:26:32.434Z,83.28
2018-06-15T03:29:05.443Z,83.94
2018-06-15T03:31:32.388Z,85.30
2018-06-15T03:33:59.354Z,86.12
2018-06-15T03:36:26.455Z,85.67
2018-06-15T03:38:53.333Z,86.91
2018-06-15T03:41:21.362Z,86.72
2018-06-15T03:43:51.277Z,86.20
2018-06-15T03:46:20.831Z,86.52
2018-06-15T03:48:47.782Z,86.06
2018-06-15T03:51:15.395Z,87.23
2018-06-15T03:53:42.854Z,86.30
2018-06-15T03:56:16.115Z,86.35
2018-06-15T03:58:43.829Z,86.46
2018-06-15T04:01:10.702Z,84.74
2018-06-15T04:03:40.446Z,84.60
2018-06-15T04:06:07.894Z,84.19
2018-06-15T04:08:38.466Z,82.59
2018-06-15T04:11:05.931Z,81.35
2018-06-15T04:13:39.043Z,80.93
2018-06-15T04:16:06.033Z,81.32
2018-06-15T04:18:32.934Z,79.76
2018-06-15T04:20:59.944Z,78.72
2018-06-15T04:23:28.504Z,78.65
2018-06-15T04:25:58.447Z,77.95
2018-06-15T04:28:25.870Z,78.24
2018-06-15T04:30:58.826Z,76.68
2018-06-15T04:33:27.491Z,75.94
2018-06-15T04:35:55.475Z,76.12
2018-06-15T04:38:22.894Z,75.61
2018-06-15T04:40:49.792Z,75.38
2018-06-15T04:43:17.446Z,73.27
2018-06-15T04:45:44.427Z,74.74
2018-06-15T04:48:11.391Z,72.93
2018-06-15T04:50:39.355Z,73.52
2018-06-15T04:53:09.944Z,75.93
2018-06-15T04:55:38.363Z,74.77
2018-06-15T04:58:05.347Z,74.02
2018-06-15T05:00:33.334Z,73.20
2018-06-15T05:03:00.960Z,71.65
2018-06-15T05:05:29.901Z,71.99
2018-06-15T05:07:59.855Z,70.11
2018-06-15T05:10:29.770Z,69.61
2018-06-15T05:12:56.731Z,68.49
2018-06-15T05:15:24.662Z,69.31
2018-06-15T05:17:52.478Z,68.26
2018-06-15T05:20:20.366Z,69.77
2018-06-15T05:22:47.309Z,71.65
2018-06-15T05:25:14.238Z,71.85
2018-06-15T05:27:41.921Z,72.97
2018-06-15T05:30:09.929Z,72.51
2018-06-15T05:32:41.798Z,73.95
2018-06-15T05:35:13.799Z,73.05
2018-06-15T05:37:43.707Z,73.19
2018-06-15T05:40:13.986Z,71.41
2018-06-15T05:42:40.983Z,72.23
2018-06-15T05:45:09.513Z,71.56
2018-06-15T05:47:37.995Z,71.39
2018-06-15T05:50:11.075Z,70.91
2018-06-15T05:52:38.965Z,68.13
2018-06-15T05:55:07.478Z,65.70
2018-06-15T05:57:37.418Z,64.18
2018-06-15T06:00:05.983Z,63.79
2018-06-15T06:02:37.483Z,63.41
2018-06-15T06:05:12.918Z,62.37
2018-06-15T06:07:41.503Z,62.06
2018-06-15T06:10:09.941Z,62.68
2018-06-15T06:12:39.895Z,62.06
2018-06-15T06:15:09.858Z,62.41
2018-06-15T06:17:47.129Z,62.12
2018-06-15T06:20:15.963Z,61.35
2018-06-15T06:22:42.930Z,62.40
2018-06-15T06:25:12.857Z,60.52
2018-06-15T06:27:43.482Z,59.56
2018-06-15T06:30:10.948Z,58.99
2018-06-15T06:32:37.943Z,59.57
2018-06-15T06:35:06.931Z,57.91
2018-06-15T06:37:37.279Z,56.55
2018-06-15T06:40:04.187Z,56.53
2018-06-15T06:42:31.989Z,55.97
2018-06-15T06:45:00.451Z,57.34
2018-06-15T06:47:28.042Z,55.95
2018-06-15T06:49:57.078Z,53.58
2018-06-15T06:52:25.047Z,53.74
2018-06-15T06:54:54.939Z,54.24
2018-06-15T06:57:24.891Z,51.66
2018-06-15T06:59:52.481Z,52.02
2018-06-15T07:02:19.386Z,51.70
2018-06-15T07:04:46.251Z,49.40
2018-06-15T07:07:13.202Z,51.81
2018-06-15T07:09:40.102Z,51.62
2018-06-15T07:12:07.971Z,50.58
2018-06-15T07:14:36.573Z,51.24
2018-06-15T07:17:04.198Z,50.44
2018-06-15T07:19:35.802Z,49.88
2018-06-15T07:22:03.749Z,48.92
2018-06-15T07:24:32.450Z,49.80
2018-06-15T07:27:01.155Z,53.02
2018-06-15T07:29:29.039Z,52.18
2018-06-15T07:31:56.546Z,50.98
2018-06-15T07:34:23.999Z,49.78
2018-06-15T07:36:51.586Z,50.20
2018-06-15T07:39:20.074Z,52.50
2018-06-15T07:41:47.049Z,50.27
2018-06-15T07:44:13.995Z,50.44
2018-06-15T07:46:40.977Z,52.40
2018-06-15T07:49:07.862Z,51.88
2018-06-15T07:51:35.586Z,51.91
2018-06-15T07:54:04.570Z,50.25
2018-06-15T07:56:31.502Z,49.65
2018-06-15T07:58:58.486Z,50.73
2018-06-15T08:01:26.487Z,52.80
2018-06-15T08:04:02.306Z,50.18
2018-06-15T08:06:29.455Z,49.76
2018-06-15T08:08:56.290Z,53.13
2018-06-15T08:11:30.539Z,49.79
2018-06-15T08:13:58.457Z,52.74
2018-06-15T08:16:25.415Z,51.81
2018-06-15T08:18:52.622Z,50.92
2018-06-15T08:21:19.550Z,52.49
2018-06-15T08:23:46.910Z,54.03
2018-06-15T08:26:13.904Z,48.26
2018-06-15T08:28:40.829Z,53.32
2018-06-15T08:31:08.626Z,52.54
2018-06-15T08:33:35.559Z,48.46
2018-06-15T08:36:03.449Z,49.60
2018-06-15T08:38:30.368Z,46.66
2018-06-15T08:40:57.380Z,48.08
2018-06-15T08:43:24.986Z,47.77
2018-06-15T08:45:52.486Z,48.50
2018-06-15T08:48:20.074Z,45.61
2018-06-15T08:50:47.023Z,46.94
2018-06-15T08:53:13.965Z,46.65
2018-06-15T08:55:42.998Z,50.35
2018-06-15T08:58:12.620Z,47.11
2018-06-15T09:00:39.575Z,45.20
2018-06-15T09:03:08.578Z,45.40
2018-06-15T09:05:38.470Z,45.22
2018-06-15T09:08:06.419Z,46.20
2018-06-15T09:10:34.370Z,49.13
2018-06-15T09:13:04.377Z,46.92
2018-06-15T09:15:31.358Z,48.18
2018-06-15T09:18:03.075Z,45.54
2018-06-15T09:20:29.974Z,41.82
2018-06-15T09:22:57.686Z,44.00
2018-06-15T09:25:24.563Z,43.48
2018-06-15T09:27:51.468Z,43.07
2018-06-15T09:30:19.146Z,43.78
2018-06-15T09:32:46.115Z,43.16
2018-06-15T09:35:14.086Z,44.45
2018-06-15T09:37:41.149Z,42.64
2018-06-15T09:40:08.223Z,42.36
2018-06-15T09:42:37.121Z,41.42
2018-06-15T09:45:04.113Z,41.29
2018-06-15T09:47:31.198Z,39.36
2018-06-15T09:49:59.114Z,40.84
2018-06-15T09:52:26.063Z,39.52
2018-06-15T09:54:54.598Z,43.05
2018-06-15T09:57:26.091Z,41.66
2018-06-15T09:59:54.587Z,44.07
2018-06-15T10:02:21.606Z,41.97
2018-06-15T10:04:50.153Z,38.82
2018-06-15T10:07:17.658Z,38.31
2018-06-15T10:09:44.569Z,39.49
2018-06-15T10:12:11.551Z,40.90
2018-06-15T10:14:41.134Z,44.07
2018-06-15T10:17:08.642Z,45.92
2018-06-15T10:19:35.606Z,43.22
2018-06-15T10:22:03.345Z,43.55
2018-06-15T10:24:30.298Z,43.89
2018-06-15T10:27:02.618Z,46.56
2018-06-15T10:29:32.371Z,47.92
2018-06-15T10:31:59.263Z,47.15
2018-06-15T10:34:27.178Z,46.01
2018-06-15T10:36:54.134Z,45.84
2018-06-15T10:39:21.125Z,42.69
2018-06-15T10:41:48.238Z,42.38
2018-06-15T10:44:15.202Z,42.02
2018-06-15T10:46:42.158Z,43.77
2018-06-15T10:49:10.141Z,46.06
2018-06-15T10:51:37.610Z,44.17
2018-06-15T10:54:04.558Z,40.66
2018-06-15T10:56:35.114Z,40.91
2018-06-15T10:59:04.775Z,40.99
2018-06-15T11:01:31.710Z,41.74
2018-06-15T11:03:58.681Z,40.69
2018-06-15T11:06:30.119Z,39.99
2018-06-15T11:08:57.724Z,39.29
2018-06-15T11:11:24.634Z,39.99
2018-06-15T11:13:51.584Z,40.47
2018-06-15T11:16:18.463Z,37.40
2018-06-15T11:18:45.414Z,40.36
2018-06-15T11:21:13.226Z,42.41
2018-06-15T11:23:40.658Z,41.81
2018-06-15T11:26:08.134Z,41.81
2018-06-15T11:28:36.147Z,39.21
2018-06-15T11:31:03.669Z,39.04
2018-06-15T11:33:32.162Z,40.55
2018-06-15T11:35:59.220Z,38.37
2018-06-15T11:38:26.710Z,40.85
2018-06-15T11:40:54.205Z,38.12
2018-06-15T11:43:22.662Z,37.53
2018-06-15T11:45:49.639Z,35.36
2018-06-15T11:48:18.178Z,37.75
2018-06-15T11:50:46.231Z,35.98
2018-06-15T11:53:13.650Z,34.36
2018-06-15T11:55:40.614Z,35.04
2018-06-15T11:58:07.567Z,39.32
2018-06-15T12:00:34.505Z,41.57
2018-06-15T12:03:01.403Z,41.10
2018-06-15T12:05:29.170Z,38.29
2018-06-15T12:07:56.188Z,39.42
2018-06-15T12:10:23.085Z,39.38
2018-06-15T12:12:50.022Z,36.84
2018-06-15T12:15:17.006Z,39.07
2018-06-15T12:17:43.938Z,40.33
2018-06-15T12:20:11.029Z,45.23
2018-06-15T12:22:38.398Z,45.07
2018-06-15T12:25:06.913Z,45.78
2018-06-15T12:27:35.598Z,44.31
2018-06-15T12:30:02.707Z,43.85
2018-06-15T12:32:29.606Z,46.11
2018-06-15T12:34:56.554Z,45.05
2018-06-15T12:37:23.559Z,45.34
2018-06-15T12:39:50.501Z,45.97
2018-06-15T12:42:17.466Z,43.27
2018-06-15T12:44:44.436Z,42.79
2018-06-15T12:47:11.330Z,42.88
2018-06-15T12:49:38.310Z,42.11
2018-06-15T12:52:05.385Z,37.97
2018-06-15T12:54:33.374Z,39.50
2018-06-15T12:57:00.382Z,39.27
2018-06-15T12:59:27.249Z,38.49
2018-06-15T13:01:54.175Z,41.35
2018-06-15T13:04:21.162Z,38.48
2018-06-15T13:06:48.160Z,38.80
2018-06-15T13:09:15.723Z,42.54
2018-06-15T13:11:43.248Z,43.00
2018-06-15T13:14:10.199Z,42.08
2018-06-15T13:16:37.207Z,45.90
2018-06-15T13:19:05.768Z,45.96
2018-06-15T13:21:33.823Z,46.92
2018-06-15T13:24:00.707Z,44.93
2018-06-15T13:26:29.235Z,46.12
2018-06-15T13:28:56.160Z,41.58
2018-06-15T13:31:24.154Z,41.23
2018-06-15T13:33:51.102Z,41.29
2018-06-15T13:36:18.043Z,38.68
2018-06-15T13:38:45.853Z,36.40
2018-06-15T13:41:17.139Z,39.26
2018-06-15T13:43:44.132Z,38.66
2018-06-15T13:46:14.100Z,38.78
2018-06-15T13:48:41.123Z,40.46
2018-06-15T13:51:09.738Z,39.87
2018-06-15T13:53:38.764Z,39.07
2018-06-15T13:56:05.730Z,41.02
2018-06-15T13:58:32.682Z,38.10
2018-06-15T14:01:00.248Z,37.60
2018-06-15T14:03:28.030Z,37.34
2018-06-15T14:05:55.061Z,37.35
2018-06-15T14:08:26.735Z,38.04
2018-06-15T14:10:54.351Z,35.25
2018-06-15T14:13:22.283Z,33.83
2018-06-15T14:15:49.153Z,33.03
2018-06-15T14:18:16.123Z,33.75
2018-06-15T14:20:43.032Z,38.44
2018-06-15T14:23:14.019Z,35.30
2018-06-15T14:25:40.978Z,33.26
2018-06-15T14:28:07.954Z,37.21
2018-06-15T14:30:36.987Z,37.97
2018-06-15T14:33:05.771Z,36.29
2018-06-15T14:35:32.690Z,36.98
2018-06-15T14:37:59.652Z,36.18
2018-06-15T14:40:28.672Z,37.78
2018-06-15T14:42:57.371Z,41.21
2018-06-15T14:45:25.337Z,40.31
2018-06-15T14:47:52.432Z,39.16
2018-06-15T14:50:19.359Z,43.68
2018-06-15T14:52:47.198Z,42.31
2018-06-15T14:55:14.786Z,46.10
2018-06-15T14:57:41.777Z,47.34
2018-06-15T15:00:09.229Z,45.41
2018-06-15T15:02:36.243Z,48.58
2018-06-15T15:05:03.146Z,46.44
2018-06-15T15:07:30.152Z,44.83
2018-06-15T15:09:57.083Z,42.82
2018-06-15T15:12:24.877Z,43.71
2018-06-15T15:14:51.914Z,45.81
2018-06-15T15:17:19.842Z,42.53
2018-06-15T15:19:49.664Z,45.41
2018-06-15T15:22:17.569Z,42.64
2018-06-15T15:24:46.302Z,41.74
2018-06-15T15:27:13.266Z,44.12
2018-06-15T15:29:40.229Z,42.64
2018-06-15T15:32:07.195Z,42.63
2018-06-15T15:34:34.843Z,44.35
2018-06-15T15:37:01.832Z,43.11
2018-06-15T15:39:29.730Z,44.71
2018-06-15T15:41:58.477Z,46.39
2018-06-15T15:44:26.543Z,45.58
2018-06-15T15:46:53.535Z,45.58
2018-06-15T15:49:20.471Z,44.85
2018-06-15T15:51:48.554Z,46.85
2018-06-15T15:54:15.528Z,47.45
2018-06-15T15:56:43.302Z,46.45
2018-06-15T15:59:10.837Z,48.05
2018-06-15T16:01:37.830Z,48.96
2018-06-15T16:04:06.374Z,49.53
2018-06-15T16:06:33.874Z,48.33
2018-06-15T16:09:00.859Z,47.56
2018-06-15T16:11:27.815Z,49.95
2018-06-15T16:13:55.386Z,49.20
2018-06-15T16:16:22.439Z,49.16
2018-06-15T16:18:49.393Z,48.03
2018-06-15T16:21:16.865Z,46.44
2018-06-15T16:23:44.334Z,46.87
2018-06-15T16:26:11.898Z,48.02
2018-06-15T16:28:38.910Z,49.53
2018-06-15T16:31:06.279Z,50.61
2018-06-15T16:33:33.906Z,49.43
2018-06-15T16:36:03.822Z,48.35
2018-06-15T16:38:30.779Z,50.86
2018-06-15T16:41:00.706Z,49.31
2018-06-15T16:43:28.428Z,51.03
2018-06-15T16:45:55.347Z,55.64
2018-06-15T16:48:24.398Z,56.30
2018-06-15T16:50:51.311Z,57.42
2018-06-15T16:53:18.866Z,57.03
2018-06-15T16:55:47.368Z,55.09
2018-06-15T16:58:14.331Z,57.62
2018-06-15T17:00:41.334Z,59.51
2018-06-15T17:03:08.286Z,58.02
2018-06-15T17:05:38.903Z,58.01
2018-06-15T17:08:09.839Z,58.56
2018-06-15T17:10:39.773Z,59.27
2018-06-15T17:13:07.746Z,60.74
2018-06-15T17:15:37.667Z,59.33
2018-06-15T17:18:04.775Z,60.24
2018-06-15T17:20:31.663Z,59.39
2018-06-15T17:22:58.642Z,59.16
2018-06-15T17:25:28.534Z,61.07
2018-06-15T17:27:57.402Z,59.49
2018-06-15T17:30:35.538Z,60.51
2018-06-15T17:33:05.510Z,61.67
2018-06-15T17:35:33.398Z,61.70
2018-06-15T17:38:00.872Z,60.80
2018-06-15T17:40:28.527Z,61.73
2018-06-15T17:42:55.543Z,61.94
2018-06-15T17:45:22.391Z,61.29
2018-06-15T17:47:53.814Z,60.81
2018-06-15T17:50:21.810Z,61.30
2018-06-15T17:52:48.750Z,61.46
2018-06-15T17:55:16.426Z,60.83
2018-06-15T17:57:43.372Z,60.79
2018-06-15T18:00:10.868Z,61.49
2018-06-15T18:02:39.987Z,63.09
2018-06-15T18:05:07.962Z,62.40
2018-06-15T18:07:36.422Z,63.05
2018-06-15T18:10:04.432Z,62.88
2018-06-15T18:12:34.957Z,62.93
2018-06-15T18:15:05.442Z,63.77
2018-06-15T18:17:32.918Z,66.20
2018-06-15T18:19:59.843Z,67.38
2018-06-15T18:22:26.804Z,66.98
2018-06-15T18:24:54.482Z,64.54
2018-06-15T18:27:21.414Z,64.55
2018-06-15T18:29:48.363Z,65.94
2018-06-15T18:32:15.955Z,65.64
2018-06-15T18:34:42.947Z,65.63
2018-06-15T18:37:11.928Z,65.36
2018-06-15T18:39:40.406Z,64.93
2018-06-15T18:42:07.374Z,64.65
2018-06-15T18:44:39.964Z,65.08
2018-06-15T18:47:08.461Z,66.04
2018-06-15T18:49:35.914Z,66.32
2018-06-15T18:52:02.791Z,67.84
2018-06-15T18:54:31.500Z,69.29
2018-06-15T18:57:01.398Z,71.00
2018-06-15T18:59:28.974Z,70.34
2018-06-15T19:01:55.946Z,70.82
2018-06-15T19:04:22.910Z,70.15
2018-06-15T19:06:51.479Z,71.28
2018-06-15T19:09:19.464Z,70.51
2018-06-15T19:11:46.939Z,69.08
2018-06-15T19:14:13.874Z,68.86
2018-06-15T19:16:40.841Z,69.82
2018-06-15T19:19:08.444Z,69.15
2018-06-15T19:21:37.938Z,69.62
2018-06-15T19:24:05.071Z,71.96
2018-06-15T19:26:35.123Z,71.69
2018-06-15T19:29:02.090Z,72.71
2018-06-15T19:31:30.483Z,74.02
2018-06-15T19:33:57.953Z,76.24
2018-06-15T19:36:25.390Z,76.65
2018-06-15T19:38:56.106Z,75.88
2018-06-15T19:41:24.982Z,76.65
2018-06-15T19:43:54.862Z,75.89
2018-06-15T19:46:27.782Z,76.25
2018-06-15T19:48:56.462Z,75.62
2018-06-15T19:51:23.958Z,77.09
2018-06-15T19:53:50.886Z,76.84
2018-06-15T19:56:23.866Z,75.50
2018-06-15T19:58:51.500Z,74.87
2018-06-15T20:01:18.433Z,75.20
2018-06-15T20:03:48.069Z,75.96
2018-06-15T20:06:17.063Z,75.72
2018-06-15T20:08:45.043Z,73.93
2018-06-15T20:11:15.506Z,74.74
2018-06-15T20:13:44.507Z,76.20
2018-06-15T20:16:11.481Z,78.10
2018-06-15T20:18:40.106Z,78.67
2018-06-15T20:21:07.024Z,77.97
2018-06-15T20:23:34.058Z,79.46
2018-06-15T20:26:02.979Z,78.93
2018-06-15T20:28:34.249Z,79.11
2018-06-15T20:31:02.041Z,80.03
2018-06-15T20:33:28.947Z,78.50
2018-06-15T20:35:59.774Z,80.48
2018-06-15T20:38:28.533Z,80.23
2018-06-15T20:40:56.217Z,80.66
2018-06-15T20:43:23.966Z,81.00
2018-06-15T20:45:50.934Z,80.88
2018-06-15T20:48:18.497Z,80.63
2018-06-15T20:50:45.942Z,78.51
2018-06-15T20:53:19.067Z,80.94
2018-06-15T20:55:47.561Z,81.49
2018-06-15T20:58:14.522Z,82.43
2018-06-15T21:00:45.519Z,82.21
2018-06-15T21:03:13.502Z,82.13
2018-06-15T21:05:41.983Z,81.93
2018-06-15T21:08:22.314Z,81.57
2018-06-15T21:10:52.243Z,80.06
2018-06-15T21:13:21.142Z,80.33
2018-06-15T21:15:48.084Z,80.39
2018-06-15T21:18:19.966Z,79.91
2018-06-15T21:20:48.574Z,79.36
2018-06-15T21:23:17.215Z,79.74
2018-06-15T21:25:44.130Z,79.67
2018-06-15T21:28:12.011Z,78.95
2018-06-15T21:30:45.034Z,79.48
2018-06-15T21:33:14.507Z,80.42
2018-06-15T21:35:41.994Z,80.77
2018-06-15T21:38:14.981Z,79.25
2018-06-15T21:40:46.526Z,79.71
2018-06-15T21:43:14.074Z,79.05
2018-06-15T21:46:07.459Z,80.06
2018-06-15T21:48:35.081Z,80.79
2018-06-15T21:51:05.010Z,82.31
2018-06-15T21:53:32.466Z,82.41
2018-06-15T21:56:05.583Z,83.06
2018-06-15T21:58:32.429Z,82.28
2018-06-15T22:01:00.447Z,82.88
2018-06-15T22:03:30.372Z,82.32
2018-06-15T22:05:57.289Z,81.43
2018-06-15T22:08:25.112Z,81.98
2018-06-15T22:10:56.550Z,81.20
2018-06-15T22:13:23.487Z,80.71
2018-06-15T22:15:50.458Z,81.06
2018-06-15T22:18:20.490Z,81.59
2018-06-15T22:20:47.471Z,82.24
2018-06-15T22:23:24.186Z,81.81
2018-06-15T22:25:52.108Z,81.31
2018-06-15T22:28:19.082Z,81.59
2018-06-15T22:30:46.515Z,81.41
2018-06-15T22:33:13.410Z,81.96
2018-06-15T22:35:40.355Z,82.18
2018-06-15T22:38:08.234Z,82.14
2018-06-15T22:40:40.003Z,82.27
2018-06-15T22:43:08.599Z,82.21
2018-06-15T22:45:38.979Z,82.94
2018-06-15T22:48:05.898Z,83.26
2018-06-15T22:50:38.998Z,82.71
2018-06-15T22:53:08.996Z,82.41
2018-06-15T22:55:37.618Z,82.29
2018-06-15T22:58:08.867Z,81.94
2018-06-15T23:00:36.595Z,81.82
2018-06-15T23:03:07.106Z,81.54
2018-06-15T23:05:34.015Z,81.92
2018-06-15T23:08:01.683Z,83.04
2018-06-15T23:10:28.586Z,83.34
2018-06-15T23:13:02.403Z,82.63
2018-06-15T23:15:32.298Z,83.65
2018-06-15T23:18:02.222Z,84.73
2018-06-15T23:20:30.178Z,85.50
2018-06-15T23:22:59.150Z,84.71
2018-06-15T23:25:30.098Z,84.38
2018-06-15T23:27:57.551Z,84.80
2018-06-15T23:30:26.573Z,85.05
2018-06-15T23:33:04.883Z,84.14
2018-06-15T23:35:38.389Z,85.01
2018-06-15T23:38:05.306Z,83.66
2018-06-15T23:40:34.292Z,83.50
2018-06-15T23:43:05.098Z,82.71
2018-06-15T23:45:35.293Z,83.34
2018-06-15T23:48:07.050Z,86.07
2018-06-15T23:50:33.934Z,87.51
2018-06-15T23:53:02.649Z,87.78
2018-06-15T23:55:29.594Z,88.26
2018-06-15T23:58:00.570Z,87.88
